sensor_id;sensor_type;location;lat;lon;timestamp;pressure;altitude;pressure_sealevel;temperature;humidity
55410;BME280;41279;43.546;16.426;2023-02-11T00:01:19;52334.25;;;-146.77;31.01
55410;BME280;41279;43.546;16.426;2023-02-11T00:03:46;52328.22;;;-146.77;30.98
55410;BME280;41279;43.546;16.426;2023-02-11T00:06:11;52298.19;;;-146.77;31.53
55410;BME280;41279;43.546;16.426;2023-02-11T00:08:38;52332.22;;;-146.77;31.18
55410;BME280;41279;43.546;16.426;2023-02-11T00:11:04;52344.25;;;-146.77;29.67
55410;BME280;41279;43.546;16.426;2023-02-11T00:13:30;52348.25;;;-146.77;30.13
55410;BME280;41279;43.546;16.426;2023-02-11T00:15:55;52306.22;;;-146.77;32.01
55410;BME280;41279;43.546;16.426;2023-02-11T00:18:21;52302.22;;;-146.77;32.04
55410;BME280;41279;43.546;16.426;2023-02-11T00:20:54;52318.22;;;-146.77;31.27
55410;BME280;41279;43.546;16.426;2023-02-11T00:23:27;52304.22;;;-146.77;31.36
55410;BME280;41279;43.546;16.426;2023-02-11T00:25:52;52328.22;;;-146.77;30.88
55410;BME280;41279;43.546;16.426;2023-02-11T00:28:24;52334.25;;;-146.77;30.76
55410;BME280;41279;43.546;16.426;2023-02-11T00:30:54;52326.22;;;-146.77;31.89
55410;BME280;41279;43.546;16.426;2023-02-11T00:33:19;52342.25;;;-146.77;31.58
55410;BME280;41279;43.546;16.426;2023-02-11T00:35:45;52326.22;;;-146.77;30.82
55410;BME280;41279;43.546;16.426;2023-02-11T00:38:10;52320.22;;;-146.77;32.46
55410;BME280;41279;43.546;16.426;2023-02-11T00:40:36;52334.25;;;-146.77;30.62
55410;BME280;41279;43.546;16.426;2023-02-11T00:43:01;52314.22;;;-146.77;31.89
55410;BME280;41279;43.546;16.426;2023-02-11T00:45:26;52316.22;;;-146.77;31.31
55410;BME280;41279;43.546;16.426;2023-02-11T00:47:52;52326.22;;;-146.77;32.48
55410;BME280;41279;43.546;16.426;2023-02-11T00:50:18;52310.22;;;-146.77;33.02
55410;BME280;41279;43.546;16.426;2023-02-11T00:52:43;52292.19;;;-146.77;32.89
55410;BME280;41279;43.546;16.426;2023-02-11T00:55:09;52304.22;;;-146.77;32.27
55410;BME280;41279;43.546;16.426;2023-02-11T00:57:35;52350.25;;;-146.77;31.78
55410;BME280;41279;43.546;16.426;2023-02-11T01:00:00;52332.22;;;-146.77;32.41
55410;BME280;41279;43.546;16.426;2023-02-11T01:02:26;52342.25;;;-146.77;32.20
55410;BME280;41279;43.546;16.426;2023-02-11T01:04:51;52316.22;;;-146.77;32.65
55410;BME280;41279;43.546;16.426;2023-02-11T01:07:17;52330.22;;;-146.77;31.98
55410;BME280;41279;43.546;16.426;2023-02-11T01:09:42;52326.22;;;-146.77;32.83
55410;BME280;41279;43.546;16.426;2023-02-11T01:12:07;52318.22;;;-146.77;32.97
55410;BME280;41279;43.546;16.426;2023-02-11T01:14:33;52338.25;;;-146.77;31.95
55410;BME280;41279;43.546;16.426;2023-02-11T01:16:58;52300.19;;;-146.77;32.23
55410;BME280;41279;43.546;16.426;2023-02-11T01:19:24;52326.22;;;-146.77;32.00
55410;BME280;41279;43.546;16.426;2023-02-11T01:21:49;52316.22;;;-146.77;31.64
55410;BME280;41279;43.546;16.426;2023-02-11T01:24:15;52316.22;;;-146.77;32.03
55410;BME280;41279;43.546;16.426;2023-02-11T01:26:40;52316.22;;;-146.77;31.47
55410;BME280;41279;43.546;16.426;2023-02-11T01:29:06;52318.22;;;-146.77;31.87
55410;BME280;41279;43.546;16.426;2023-02-11T01:31:33;52328.22;;;-146.77;31.71
55410;BME280;41279;43.546;16.426;2023-02-11T01:33:59;52314.22;;;-146.77;30.61
55410;BME280;41279;43.546;16.426;2023-02-11T01:36:25;52320.22;;;-146.77;30.55
55410;BME280;41279;43.546;16.426;2023-02-11T01:38:50;52334.25;;;-146.77;31.07
55410;BME280;41279;43.546;16.426;2023-02-11T01:41:16;52330.22;;;-146.77;30.91
55410;BME280;41279;43.546;16.426;2023-02-11T01:43:47;52334.25;;;-146.77;30.14
55410;BME280;41279;43.546;16.426;2023-02-11T01:46:36;52324.22;;;-146.77;31.15
55410;BME280;41279;43.546;16.426;2023-02-11T01:49:11;52314.22;;;-146.77;32.09
55410;BME280;41279;43.546;16.426;2023-02-11T01:51:43;52334.25;;;-146.77;32.81
55410;BME280;41279;43.546;16.426;2023-02-11T01:54:14;52326.22;;;-146.77;33.50
55410;BME280;41279;43.546;16.426;2023-02-11T01:57:01;52324.22;;;-146.77;32.69
55410;BME280;41279;43.546;16.426;2023-02-11T02:03:11;52318.22;;;-146.77;31.56
55410;BME280;41279;43.546;16.426;2023-02-11T02:10:49;52308.22;;;-146.77;32.88
55410;BME280;41279;43.546;16.426;2023-02-11T02:13:18;52302.22;;;-146.77;32.12
55410;BME280;41279;43.546;16.426;2023-02-11T02:15:52;52330.22;;;-146.77;32.30
55410;BME280;41279;43.546;16.426;2023-02-11T02:21:17;52314.22;;;-146.77;32.32
55410;BME280;41279;43.546;16.426;2023-02-11T02:37:35;52338.25;;;-146.77;32.77
55410;BME280;41279;43.546;16.426;2023-02-11T02:40:06;52346.25;;;-146.77;33.17
55410;BME280;41279;43.546;16.426;2023-02-11T02:42:34;52346.25;;;-146.77;32.26
55410;BME280;41279;43.546;16.426;2023-02-11T02:45:00;52310.22;;;-146.77;31.82
55410;BME280;41279;43.546;16.426;2023-02-11T02:47:25;52314.22;;;-146.77;33.48
55410;BME280;41279;43.546;16.426;2023-02-11T02:49:51;52302.22;;;-146.77;33.87
55410;BME280;41279;43.546;16.426;2023-02-11T02:57:38;52340.25;;;-146.77;34.46
55410;BME280;41279;43.546;16.426;2023-02-11T03:05:40;52340.25;;;-146.77;34.06
55410;BME280;41279;43.546;16.426;2023-02-11T03:08:17;52322.22;;;-146.77;34.02
55410;BME280;41279;43.546;16.426;2023-02-11T03:10:46;52314.22;;;-146.77;34.16
55410;BME280;41279;43.546;16.426;2023-02-11T03:13:15;52336.25;;;-146.77;34.07
55410;BME280;41279;43.546;16.426;2023-02-11T03:15:45;52308.22;;;-146.77;34.16
55410;BME280;41279;43.546;16.426;2023-02-11T03:18:15;52312.22;;;-146.77;34.63
55410;BME280;41279;43.546;16.426;2023-02-11T03:20:43;52304.22;;;-146.77;33.59
55410;BME280;41279;43.546;16.426;2023-02-11T03:23:13;52318.22;;;-146.77;33.28
55410;BME280;41279;43.546;16.426;2023-02-11T03:25:45;52328.22;;;-146.77;32.43
55410;BME280;41279;43.546;16.426;2023-02-11T03:28:17;52330.22;;;-146.77;32.30
55410;BME280;41279;43.546;16.426;2023-02-11T03:31:02;52316.22;;;-146.77;32.17
55410;BME280;41279;43.546;16.426;2023-02-11T03:33:39;52318.22;;;-146.77;34.22
55410;BME280;41279;43.546;16.426;2023-02-11T03:36:14;52342.25;;;-146.77;33.21
55410;BME280;41279;43.546;16.426;2023-02-11T03:38:46;52292.19;;;-146.77;33.27
55410;BME280;41279;43.546;16.426;2023-02-11T03:41:14;52338.25;;;-146.77;32.76
55410;BME280;41279;43.546;16.426;2023-02-11T03:43:45;52344.25;;;-146.77;34.05
55410;BME280;41279;43.546;16.426;2023-02-11T03:46:15;52316.22;;;-146.77;34.02
55410;BME280;41279;43.546;16.426;2023-02-11T03:48:48;52326.22;;;-146.77;35.14
55410;BME280;41279;43.546;16.426;2023-02-11T03:51:16;52306.22;;;-146.77;34.77
55410;BME280;41279;43.546;16.426;2023-02-11T03:53:43;52328.22;;;-146.77;34.83
55410;BME280;41279;43.546;16.426;2023-02-11T03:56:14;52324.22;;;-146.77;33.81
55410;BME280;41279;43.546;16.426;2023-02-11T03:58:43;52330.22;;;-146.77;31.37
55410;BME280;41279;43.546;16.426;2023-02-11T04:01:08;52358.25;;;-146.77;30.54
55410;BME280;41279;43.546;16.426;2023-02-11T04:03:34;52328.22;;;-146.77;31.54
55410;BME280;41279;43.546;16.426;2023-02-11T04:06:00;52302.22;;;-146.77;32.84
55410;BME280;41279;43.546;16.426;2023-02-11T04:08:25;52310.22;;;-146.77;32.60
55410;BME280;41279;43.546;16.426;2023-02-11T04:10:51;52302.22;;;-146.77;33.58
55410;BME280;41279;43.546;16.426;2023-02-11T04:13:16;52328.22;;;-146.77;33.57
55410;BME280;41279;43.546;16.426;2023-02-11T04:15:42;52306.22;;;-146.77;33.57
55410;BME280;41279;43.546;16.426;2023-02-11T04:18:07;52310.22;;;-146.77;34.48
55410;BME280;41279;43.546;16.426;2023-02-11T04:20:32;52306.22;;;-146.77;35.88
55410;BME280;41279;43.546;16.426;2023-02-11T04:22:58;52316.22;;;-146.77;34.30
55410;BME280;41279;43.546;16.426;2023-02-11T04:25:23;52340.25;;;-146.77;33.65
55410;BME280;41279;43.546;16.426;2023-02-11T04:27:50;52298.19;;;-146.77;33.84
55410;BME280;41279;43.546;16.426;2023-02-11T04:30:16;52322.22;;;-146.77;33.48
55410;BME280;41279;43.546;16.426;2023-02-11T04:32:41;52302.22;;;-146.77;33.77
55410;BME280;41279;43.546;16.426;2023-02-11T04:35:07;52340.25;;;-146.77;34.58
55410;BME280;41279;43.546;16.426;2023-02-11T04:37:32;52296.19;;;-146.77;35.08
55410;BME280;41279;43.546;16.426;2023-02-11T04:39:58;52330.22;;;-146.77;34.48
55410;BME280;41279;43.546;16.426;2023-02-11T04:42:23;52318.22;;;-146.77;33.19
55410;BME280;41279;43.546;16.426;2023-02-11T04:44:49;52318.22;;;-146.77;32.95
55410;BME280;41279;43.546;16.426;2023-02-11T04:47:14;52308.22;;;-146.77;33.39
55410;BME280;41279;43.546;16.426;2023-02-11T04:49:40;52350.25;;;-146.77;33.17
55410;BME280;41279;43.546;16.426;2023-02-11T04:52:06;52342.25;;;-146.77;33.33
55410;BME280;41279;43.546;16.426;2023-02-11T04:54:31;52316.22;;;-146.77;34.63
55410;BME280;41279;43.546;16.426;2023-02-11T04:56:57;52308.22;;;-146.77;35.69
55410;BME280;41279;43.546;16.426;2023-02-11T04:59:22;52312.22;;;-146.77;35.54
55410;BME280;41279;43.546;16.426;2023-02-11T05:01:48;52312.22;;;-146.77;36.05
55410;BME280;41279;43.546;16.426;2023-02-11T05:04:14;52302.22;;;-146.77;36.87
55410;BME280;41279;43.546;16.426;2023-02-11T05:06:40;52318.22;;;-146.77;36.90
55410;BME280;41279;43.546;16.426;2023-02-11T05:09:05;52336.25;;;-146.77;36.58
55410;BME280;41279;43.546;16.426;2023-02-11T05:11:31;52330.22;;;-146.77;35.80
55410;BME280;41279;43.546;16.426;2023-02-11T05:13:56;52302.22;;;-146.77;32.85
55410;BME280;41279;43.546;16.426;2023-02-11T05:16:22;52326.22;;;-146.77;32.37
55410;BME280;41279;43.546;16.426;2023-02-11T05:18:47;52302.22;;;-146.77;32.77
55410;BME280;41279;43.546;16.426;2023-02-11T05:21:16;52342.25;;;-146.77;32.33
55410;BME280;41279;43.546;16.426;2023-02-11T05:23:42;52334.25;;;-146.77;32.33
55410;BME280;41279;43.546;16.426;2023-02-11T05:26:09;52310.22;;;-146.77;32.92
55410;BME280;41279;43.546;16.426;2023-02-11T05:28:34;52334.25;;;-146.77;33.34
55410;BME280;41279;43.546;16.426;2023-02-11T05:31:00;52316.22;;;-146.77;34.83
55410;BME280;41279;43.546;16.426;2023-02-11T05:33:26;52300.19;;;-146.77;35.82
55410;BME280;41279;43.546;16.426;2023-02-11T05:35:57;52300.19;;;-146.77;36.27
55410;BME280;41279;43.546;16.426;2023-02-11T05:38:23;52294.19;;;-146.77;36.49
55410;BME280;41279;43.546;16.426;2023-02-11T05:40:48;52302.22;;;-146.77;36.04
55410;BME280;41279;43.546;16.426;2023-02-11T05:43:14;52330.22;;;-146.77;34.82
55410;BME280;41279;43.546;16.426;2023-02-11T05:45:39;52314.22;;;-146.77;33.88
55410;BME280;41279;43.546;16.426;2023-02-11T05:48:05;52310.22;;;-146.77;33.69
55410;BME280;41279;43.546;16.426;2023-02-11T05:50:30;52314.22;;;-146.77;34.46
55410;BME280;41279;43.546;16.426;2023-02-11T05:52:56;52312.22;;;-146.77;33.59
55410;BME280;41279;43.546;16.426;2023-02-11T05:55:21;52322.22;;;-146.77;32.21
55410;BME280;41279;43.546;16.426;2023-02-11T05:57:46;52342.25;;;-146.77;31.78
55410;BME280;41279;43.546;16.426;2023-02-11T06:00:13;52338.25;;;-146.77;32.28
55410;BME280;41279;43.546;16.426;2023-02-11T06:02:39;52334.25;;;-146.77;33.69
55410;BME280;41279;43.546;16.426;2023-02-11T06:05:04;52324.22;;;-146.77;34.01
55410;BME280;41279;43.546;16.426;2023-02-11T06:07:30;52306.22;;;-146.77;35.39
55410;BME280;41279;43.546;16.426;2023-02-11T06:09:55;52318.22;;;-146.77;36.05
55410;BME280;41279;43.546;16.426;2023-02-11T06:12:21;52282.19;;;-146.77;35.90
55410;BME280;41279;43.546;16.426;2023-02-11T06:14:47;52300.19;;;-146.77;35.03
55410;BME280;41279;43.546;16.426;2023-02-11T06:17:19;52306.22;;;-146.77;35.01
55410;BME280;41279;43.546;16.426;2023-02-11T06:19:44;52282.19;;;-146.77;35.79
55410;BME280;41279;43.546;16.426;2023-02-11T06:22:16;52326.22;;;-146.77;35.08
55410;BME280;41279;43.546;16.426;2023-02-11T06:24:41;52306.22;;;-146.77;33.81
55410;BME280;41279;43.546;16.426;2023-02-11T06:27:07;52294.19;;;-146.77;34.20
55410;BME280;41279;43.546;16.426;2023-02-11T06:29:33;52294.19;;;-146.77;34.52
55410;BME280;41279;43.546;16.426;2023-02-11T06:31:59;52288.19;;;-146.77;34.31
55410;BME280;41279;43.546;16.426;2023-02-11T06:34:24;52310.22;;;-146.77;33.48
55410;BME280;41279;43.546;16.426;2023-02-11T06:36:50;52304.22;;;-146.77;32.38
55410;BME280;41279;43.546;16.426;2023-02-11T06:39:15;52318.22;;;-146.77;31.27
55410;BME280;41279;43.546;16.426;2023-02-11T06:41:40;52298.19;;;-146.77;30.45
55410;BME280;41279;43.546;16.426;2023-02-11T06:44:06;52292.19;;;-146.77;30.63
55410;BME280;41279;43.546;16.426;2023-02-11T06:46:31;52334.25;;;-146.77;32.10
55410;BME280;41279;43.546;16.426;2023-02-11T06:48:57;52320.22;;;-146.77;29.12
55410;BME280;41279;43.546;16.426;2023-02-11T06:51:22;52330.22;;;-146.77;30.12
55410;BME280;41279;43.546;16.426;2023-02-11T06:53:48;52302.22;;;-146.77;30.22
55410;BME280;41279;43.546;16.426;2023-02-11T06:56:21;52324.22;;;-146.77;29.91
55410;BME280;41279;43.546;16.426;2023-02-11T06:58:50;52350.25;;;-146.77;29.73
55410;BME280;41279;43.546;16.426;2023-02-11T07:01:16;52350.25;;;-146.77;29.75
55410;BME280;41279;43.546;16.426;2023-02-11T07:03:43;52320.22;;;-146.77;30.48
55410;BME280;41279;43.546;16.426;2023-02-11T07:06:12;52318.22;;;-146.77;31.53
55410;BME280;41279;43.546;16.426;2023-02-11T07:08:39;52318.22;;;-146.77;32.50
55410;BME280;41279;43.546;16.426;2023-02-11T07:11:36;52310.22;;;-146.77;34.60
55410;BME280;41279;43.546;16.426;2023-02-11T07:14:04;52322.22;;;-146.77;35.86
55410;BME280;41279;43.546;16.426;2023-02-11T07:16:30;52306.22;;;-146.77;34.94
55410;BME280;41279;43.546;16.426;2023-02-11T07:18:56;52342.25;;;-146.77;34.12
55410;BME280;41279;43.546;16.426;2023-02-11T07:21:22;52300.19;;;-146.77;34.26
55410;BME280;41279;43.546;16.426;2023-02-11T07:23:49;52310.22;;;-146.77;32.77
55410;BME280;41279;43.546;16.426;2023-02-11T07:26:17;52334.25;;;-146.77;31.25
55410;BME280;41279;43.546;16.426;2023-02-11T07:28:43;52344.25;;;-146.77;30.90
55410;BME280;41279;43.546;16.426;2023-02-11T07:31:14;52354.25;;;-146.77;30.99
55410;BME280;41279;43.546;16.426;2023-02-11T07:33:39;52308.22;;;-146.77;31.92
55410;BME280;41279;43.546;16.426;2023-02-11T07:36:06;52322.22;;;-146.77;32.39
55410;BME280;41279;43.546;16.426;2023-02-11T07:38:33;52334.25;;;-146.77;31.04
55410;BME280;41279;43.546;16.426;2023-02-11T07:41:05;52330.22;;;-146.77;31.77
55410;BME280;41279;43.546;16.426;2023-02-11T07:43:31;52348.25;;;-146.77;31.60
55410;BME280;41279;43.546;16.426;2023-02-11T07:45:58;52322.22;;;-146.77;31.55
55410;BME280;41279;43.546;16.426;2023-02-11T07:48:23;52332.22;;;-146.77;32.39
55410;BME280;41279;43.546;16.426;2023-02-11T07:50:49;52346.25;;;-146.77;32.32
55410;BME280;41279;43.546;16.426;2023-02-11T07:53:15;52348.25;;;-146.77;32.12
55410;BME280;41279;43.546;16.426;2023-02-11T07:55:43;52354.25;;;-146.77;31.33
55410;BME280;41279;43.546;16.426;2023-02-11T07:58:09;52338.25;;;-146.77;32.29
55410;BME280;41279;43.546;16.426;2023-02-11T08:00:34;52352.25;;;-146.77;32.20
55410;BME280;41279;43.546;16.426;2023-02-11T08:03:00;52348.25;;;-146.77;31.53
55410;BME280;41279;43.546;16.426;2023-02-11T08:05:25;52346.25;;;-146.77;32.16
55410;BME280;41279;43.546;16.426;2023-02-11T08:07:51;52362.25;;;-146.77;31.66
55410;BME280;41279;43.546;16.426;2023-02-11T08:10:17;52342.25;;;-146.77;31.81
55410;BME280;41279;43.546;16.426;2023-02-11T08:12:43;52370.28;;;-146.77;31.56
55410;BME280;41279;43.546;16.426;2023-02-11T08:15:08;52348.25;;;-146.77;31.53
55410;BME280;41279;43.546;16.426;2023-02-11T08:17:35;52346.25;;;-146.77;31.78
55410;BME280;41279;43.546;16.426;2023-02-11T08:20:01;52346.25;;;-146.77;31.87
55410;BME280;41279;43.546;16.426;2023-02-11T08:22:26;52354.25;;;-146.77;31.88
55410;BME280;41279;43.546;16.426;2023-02-11T08:24:51;52338.25;;;-146.77;31.72
55410;BME280;41279;43.546;16.426;2023-02-11T08:27:17;52356.25;;;-146.77;31.30
55410;BME280;41279;43.546;16.426;2023-02-11T08:29:42;52350.25;;;-146.77;30.49
55410;BME280;41279;43.546;16.426;2023-02-11T08:32:08;52400.31;;;-146.77;29.88
55410;BME280;41279;43.546;16.426;2023-02-11T08:34:38;52358.25;;;-146.77;30.14
55410;BME280;41279;43.546;16.426;2023-02-11T08:37:04;52378.28;;;-146.77;29.01
55410;BME280;41279;43.546;16.426;2023-02-11T08:39:29;52406.31;;;-146.77;29.23
55410;BME280;41279;43.546;16.426;2023-02-11T08:41:55;52368.28;;;-146.77;29.79
55410;BME280;41279;43.546;16.426;2023-02-11T08:44:21;52394.28;;;-146.77;30.00
55410;BME280;41279;43.546;16.426;2023-02-11T08:46:47;52360.25;;;-146.77;30.31
55410;BME280;41279;43.546;16.426;2023-02-11T08:49:14;52370.28;;;-146.77;30.37
55410;BME280;41279;43.546;16.426;2023-02-11T08:51:39;52366.28;;;-146.77;30.19
55410;BME280;41279;43.546;16.426;2023-02-11T08:54:05;52370.28;;;-146.77;29.63
55410;BME280;41279;43.546;16.426;2023-02-11T08:56:33;52374.28;;;-146.77;29.23
55410;BME280;41279;43.546;16.426;2023-02-11T08:58:59;52374.28;;;-146.77;28.50
55410;BME280;41279;43.546;16.426;2023-02-11T09:01:27;52390.28;;;-146.77;27.71
55410;BME280;41279;43.546;16.426;2023-02-11T09:03:53;52428.34;;;-146.77;27.77
55410;BME280;41279;43.546;16.426;2023-02-11T09:06:20;52394.28;;;-146.77;27.72
55410;BME280;41279;43.546;16.426;2023-02-11T09:08:48;52394.28;;;-146.77;27.50
55410;BME280;41279;43.546;16.426;2023-02-11T09:11:15;52438.34;;;-146.77;26.81
55410;BME280;41279;43.546;16.426;2023-02-11T09:13:41;52382.28;;;-146.77;27.82
55410;BME280;41279;43.546;16.426;2023-02-11T09:16:12;52390.28;;;-146.77;27.78
55410;BME280;41279;43.546;16.426;2023-02-11T09:18:39;52350.25;;;-146.77;28.75
55410;BME280;41279;43.546;16.426;2023-02-11T09:21:07;52406.31;;;-146.77;28.38
55410;BME280;41279;43.546;16.426;2023-02-11T09:23:33;52412.31;;;-146.77;27.67
55410;BME280;41279;43.546;16.426;2023-02-11T09:26:32;52378.28;;;-146.77;27.36
55410;BME280;41279;43.546;16.426;2023-02-11T09:28:59;52340.25;;;-146.77;27.50
55410;BME280;41279;43.546;16.426;2023-02-11T09:31:26;52362.25;;;-146.77;27.78
55410;BME280;41279;43.546;16.426;2023-02-11T09:33:54;52374.28;;;-146.77;27.14
55410;BME280;41279;43.546;16.426;2023-02-11T09:36:23;52346.25;;;-146.77;28.34
55410;BME280;41279;43.546;16.426;2023-02-11T09:38:50;52336.25;;;-146.77;28.33
55410;BME280;41279;43.546;16.426;2023-02-11T09:43:49;52350.25;;;-146.77;28.87
55410;BME280;41279;43.546;16.426;2023-02-11T09:46:16;52360.25;;;-146.77;28.28
55410;BME280;41279;43.546;16.426;2023-02-11T09:48:44;52334.25;;;-146.77;28.55
55410;BME280;41279;43.546;16.426;2023-02-11T09:52:02;52372.28;;;-146.77;28.18
55410;BME280;41279;43.546;16.426;2023-02-11T09:54:27;52370.28;;;-146.77;29.08
55410;BME280;41279;43.546;16.426;2023-02-11T09:56:51;52356.25;;;-146.77;29.09
55410;BME280;41279;43.546;16.426;2023-02-11T09:59:16;52358.25;;;-146.77;29.10
55410;BME280;41279;43.546;16.426;2023-02-11T10:01:53;52348.25;;;-146.77;31.04
55410;BME280;41279;43.546;16.426;2023-02-11T10:05:00;52338.25;;;-146.77;32.04
55410;BME280;41279;43.546;16.426;2023-02-11T10:07:50;52356.25;;;-146.77;32.28
55410;BME280;41279;43.546;16.426;2023-02-11T10:18:48;52376.28;;;-146.77;31.87
55410;BME280;41279;43.546;16.426;2023-02-11T10:23:40;52348.25;;;-146.77;33.03
55410;BME280;41279;43.546;16.426;2023-02-11T10:26:17;52360.25;;;-146.77;32.40
55410;BME280;41279;43.546;16.426;2023-02-11T10:28:46;52346.25;;;-146.77;33.31
55410;BME280;41279;43.546;16.426;2023-02-11T10:31:16;52336.25;;;-146.77;33.96
55410;BME280;41279;43.546;16.426;2023-02-11T10:33:53;52338.25;;;-146.77;33.17
55410;BME280;41279;43.546;16.426;2023-02-11T10:36:23;52340.25;;;-146.77;33.40
55410;BME280;41279;43.546;16.426;2023-02-11T10:38:49;52338.25;;;-146.77;32.94
55410;BME280;41279;43.546;16.426;2023-02-11T10:41:19;52358.25;;;-146.77;31.84
55410;BME280;41279;43.546;16.426;2023-02-11T10:43:45;52358.25;;;-146.77;31.15
55410;BME280;41279;43.546;16.426;2023-02-11T10:46:21;52360.25;;;-146.77;31.94
55410;BME280;41279;43.546;16.426;2023-02-11T10:48:50;52396.31;;;-146.77;30.42
55410;BME280;41279;43.546;16.426;2023-02-11T10:51:22;52380.28;;;-146.77;30.15
55410;BME280;41279;43.546;16.426;2023-02-11T10:53:50;52370.28;;;-146.77;29.51
55410;BME280;41279;43.546;16.426;2023-02-11T10:56:50;52402.31;;;-146.77;30.48
55410;BME280;41279;43.546;16.426;2023-02-11T11:06:57;52404.31;;;-146.77;29.35
55410;BME280;41279;43.546;16.426;2023-02-11T11:09:53;52424.31;;;-146.77;28.97
55410;BME280;41279;43.546;16.426;2023-02-11T11:12:24;52384.28;;;-146.77;29.00
55410;BME280;41279;43.546;16.426;2023-02-11T11:14:55;52392.28;;;-146.77;28.14
55410;BME280;41279;43.546;16.426;2023-02-11T11:17:21;52354.25;;;-146.77;29.17
55410;BME280;41279;43.546;16.426;2023-02-11T11:19:47;52382.28;;;-146.77;29.01
55410;BME280;41279;43.546;16.426;2023-02-11T11:22:21;52392.28;;;-146.77;28.58
55410;BME280;41279;43.546;16.426;2023-02-11T11:24:47;52378.28;;;-146.77;28.32
55410;BME280;41279;43.546;16.426;2023-02-11T11:27:22;52440.34;;;-146.77;28.08
55410;BME280;41279;43.546;16.426;2023-02-11T11:29:51;52418.31;;;-146.77;27.84
55410;BME280;41279;43.546;16.426;2023-02-11T11:32:21;52396.31;;;-146.77;27.63
55410;BME280;41279;43.546;16.426;2023-02-11T11:34:56;52402.31;;;-146.77;28.58
55410;BME280;41279;43.546;16.426;2023-02-11T11:37:27;52456.38;;;-146.77;27.84
55410;BME280;41279;43.546;16.426;2023-02-11T11:42:40;52446.34;;;-146.77;27.72
55410;BME280;41279;43.546;16.426;2023-02-11T11:47:47;52462.38;;;-146.77;27.94
55410;BME280;41279;43.546;16.426;2023-02-11T11:53:22;52446.34;;;-146.77;28.52
55410;BME280;41279;43.546;16.426;2023-02-11T11:56:00;52428.34;;;-146.77;28.38
55410;BME280;41279;43.546;16.426;2023-02-11T11:58:28;52420.31;;;-146.77;28.61
55410;BME280;41279;43.546;16.426;2023-02-11T12:07:09;52440.34;;;-146.77;27.80
55410;BME280;41279;43.546;16.426;2023-02-11T12:09:47;52446.34;;;-146.77;27.95
55410;BME280;41279;43.546;16.426;2023-02-11T12:18:37;52470.38;;;-146.77;27.35
55410;BME280;41279;43.546;16.426;2023-02-11T12:21:26;52516.41;;;-146.77;26.90
55410;BME280;41279;43.546;16.426;2023-02-11T12:24:24;52478.38;;;-146.77;27.16
55410;BME280;41279;43.546;16.426;2023-02-11T12:32:41;52488.41;;;-146.77;27.69
55410;BME280;41279;43.546;16.426;2023-02-11T12:45:45;52446.34;;;-146.77;27.86
55410;BME280;41279;43.546;16.426;2023-02-11T12:56:56;52552.47;;;-146.77;26.48
55410;BME280;41279;43.546;16.426;2023-02-11T12:59:33;52450.34;;;-146.77;27.07
55410;BME280;41279;43.546;16.426;2023-02-11T13:02:03;52428.34;;;-146.77;27.18
55410;BME280;41279;43.546;16.426;2023-02-11T13:04:38;52460.38;;;-146.77;25.82
55410;BME280;41279;43.546;16.426;2023-02-11T13:07:20;52530.44;;;-146.77;25.40
55410;BME280;41279;43.546;16.426;2023-02-11T13:12:37;52522.44;;;-146.77;26.18
55410;BME280;41279;43.546;16.426;2023-02-11T13:15:25;52502.41;;;-146.77;26.62
55410;BME280;41279;43.546;16.426;2023-02-11T13:20:32;52436.34;;;-146.77;26.42
55410;BME280;41279;43.546;16.426;2023-02-11T13:25:56;52416.31;;;-146.77;26.35
55410;BME280;41279;43.546;16.426;2023-02-11T13:29:06;52468.38;;;-146.77;26.17
55410;BME280;41279;43.546;16.426;2023-02-11T13:31:34;52492.41;;;-146.77;26.44
55410;BME280;41279;43.546;16.426;2023-02-11T13:33:59;52476.38;;;-146.77;26.56
55410;BME280;41279;43.546;16.426;2023-02-11T13:36:29;52448.34;;;-146.77;26.49
55410;BME280;41279;43.546;16.426;2023-02-11T13:39:19;52458.38;;;-146.77;26.50
55410;BME280;41279;43.546;16.426;2023-02-11T13:41:45;52456.38;;;-146.77;26.94
55410;BME280;41279;43.546;16.426;2023-02-11T13:47:03;52442.34;;;-146.77;26.93
55410;BME280;41279;43.546;16.426;2023-02-11T13:49:30;52444.34;;;-146.77;26.53
55410;BME280;41279;43.546;16.426;2023-02-11T13:51:58;52438.34;;;-146.77;27.41
55410;BME280;41279;43.546;16.426;2023-02-11T13:54:34;52458.38;;;-146.77;27.09
55410;BME280;41279;43.546;16.426;2023-02-11T13:59:53;52430.34;;;-146.77;27.64
55410;BME280;41279;43.546;16.426;2023-02-11T14:02:23;52424.31;;;-146.77;27.47
55410;BME280;41279;43.546;16.426;2023-02-11T14:08:14;52458.38;;;-146.77;27.12
55410;BME280;41279;43.546;16.426;2023-02-11T14:16:19;52474.38;;;-146.77;27.32
55410;BME280;41279;43.546;16.426;2023-02-11T14:21:16;52440.34;;;-146.77;27.22
55410;BME280;41279;43.546;16.426;2023-02-11T14:23:43;52502.41;;;-146.77;26.08
55410;BME280;41279;43.546;16.426;2023-02-11T14:26:30;52490.41;;;-146.77;26.10
55410;BME280;41279;43.546;16.426;2023-02-11T14:40:27;52424.31;;;-146.77;27.68
55410;BME280;41279;43.546;16.426;2023-02-11T14:42:55;52440.34;;;-146.77;27.23
55410;BME280;41279;43.546;16.426;2023-02-11T14:45:24;52586.50;;;-146.77;25.64
55410;BME280;41279;43.546;16.426;2023-02-11T14:47:59;52444.34;;;-146.77;26.05
55410;BME280;41279;43.546;16.426;2023-02-11T14:50:57;52502.41;;;-146.77;26.42
55410;BME280;41279;43.546;16.426;2023-02-11T14:53:21;52500.41;;;-146.77;26.64
55410;BME280;41279;43.546;16.426;2023-02-11T14:55:50;52468.38;;;-146.77;26.40
55410;BME280;41279;43.546;16.426;2023-02-11T14:58:20;52444.34;;;-146.77;27.19
55410;BME280;41279;43.546;16.426;2023-02-11T15:01:21;52460.38;;;-146.77;27.33